createdAt,value
2023-04-27T00:01:56.662Z,100.00
2023-04-27T00:06:59.449Z,100.00
2023-04-27T00:12:02.319Z,100.00
2023-04-27T00:17:05.077Z,100.00
2023-04-27T00:22:08.961Z,100.00
2023-04-27T00:27:13.722Z,100.00
2023-04-27T00:32:16.602Z,100.00
2023-04-27T00:37:19.711Z,100.00
2023-04-27T00:42:25.088Z,100.00
2023-04-27T00:47:30.551Z,100.00
2023-04-27T00:52:33.592Z,100.00
2023-04-27T00:57:36.366Z,100.00
2023-04-27T01:02:40.353Z,100.00
2023-04-27T01:07:43.188Z,100.00
2023-04-27T01:12:45.949Z,100.00
2023-04-27T01:17:48.789Z,100.00
2023-04-27T01:22:51.660Z,100.00
2023-04-27T01:27:54.893Z,100.00
2023-04-27T01:32:57.613Z,100.00
2023-04-27T01:38:00.558Z,100.00
2023-04-27T01:43:03.575Z,100.00
2023-04-27T01:48:06.699Z,100.00
2023-04-27T01:53:09.799Z,100.00
2023-04-27T01:58:12.522Z,100.00
2023-04-27T02:03:15.386Z,100.00
2023-04-27T02:08:18.396Z,100.00
2023-04-27T02:13:21.269Z,100.00
2023-04-27T02:18:25.052Z,100.00
2023-04-27T02:23:27.830Z,100.00
2023-04-27T02:28:31.135Z,100.00
2023-04-27T02:33:34.504Z,100.00
2023-04-27T02:38:37.243Z,100.00
2023-04-27T02:43:40.084Z,100.00
2023-04-27T02:48:42.929Z,100.00
2023-04-27T02:53:45.796Z,100.00
2023-04-27T02:58:49.160Z,100.00
2023-04-27T03:03:52.139Z,100.00
2023-04-27T03:08:55.136Z,100.00
2023-04-27T03:13:57.894Z,100.00
2023-04-27T03:19:00.974Z,100.00
2023-04-27T03:24:03.969Z,100.00
2023-04-27T03:29:06.744Z,100.00
2023-04-27T03:34:09.614Z,100.00
2023-04-27T03:39:12.541Z,100.00
2023-04-27T03:44:15.908Z,100.00
2023-04-27T03:49:18.661Z,100.00
2023-04-27T03:54:21.677Z,100.00
2023-04-27T03:59:24.470Z,100.00
2023-04-27T04:04:27.380Z,100.00
2023-04-27T04:09:30.737Z,100.00
2023-04-27T04:14:33.509Z,100.00
2023-04-27T04:19:36.390Z,100.00
2023-04-27T04:24:40.270Z,100.00
2023-04-27T04:29:43.086Z,100.00
2023-04-27T04:34:51.991Z,100.00
2023-04-27T04:39:54.738Z,100.00
2023-04-27T04:44:58.975Z,100.00
2023-04-27T04:50:02.170Z,100.00
2023-04-27T04:55:05.220Z,100.00
2023-04-27T05:00:14.883Z,100.00
2023-04-27T05:05:17.661Z,100.00
2023-04-27T05:10:20.460Z,100.00
2023-04-27T05:15:23.358Z,100.00
2023-04-27T05:20:26.107Z,100.00
2023-04-27T05:25:33.059Z,100.00
2023-04-27T05:30:36.881Z,100.00
2023-04-27T05:35:39.657Z,100.00
2023-04-27T05:40:42.442Z,100.00
2023-04-27T05:45:45.216Z,100.00
2023-04-27T05:50:48.089Z,100.00
2023-04-27T05:55:58.130Z,100.00
2023-04-27T06:01:01.758Z,100.00
2023-04-27T06:06:04.927Z,100.00
2023-04-27T06:11:07.684Z,100.00
2023-04-27T06:16:10.734Z,99.97
2023-04-27T06:21:13.548Z,98.85
2023-04-27T06:26:17.911Z,97.38
2023-04-27T06:31:20.858Z,95.46
2023-04-27T06:36:26.930Z,93.85
2023-04-27T06:41:29.765Z,91.22
2023-04-27T06:46:32.724Z,90.32
2023-04-27T06:51:35.889Z,87.02
2023-04-27T06:56:38.725Z,84.25
2023-04-27T07:01:41.591Z,80.47
2023-04-27T07:06:44.374Z,80.38
2023-04-27T07:11:47.254Z,78.76
2023-04-27T07:16:50.037Z,76.68
2023-04-27T07:21:52.773Z,76.54
2023-04-27T07:26:57.727Z,74.99
2023-04-27T07:32:00.495Z,73.51
2023-04-27T07:37:03.360Z,72.60
2023-04-27T07:42:06.305Z,69.47
2023-04-27T07:47:09.238Z,67.79
2023-04-27T07:52:12.673Z,68.55
2023-04-27T07:57:15.692Z,67.18
2023-04-27T08:02:20.379Z,68.63
2023-04-27T08:07:24.086Z,66.98
2023-04-27T08:12:27.087Z,63.70
2023-04-27T08:17:29.923Z,62.54
2023-04-27T08:22:32.881Z,59.91
2023-04-27T08:27:42.917Z,60.58
2023-04-27T08:32:45.895Z,60.08
2023-04-27T08:37:49.072Z,60.51
2023-04-27T08:42:56.959Z,60.76
2023-04-27T08:48:00.117Z,63.43
2023-04-27T08:53:03.464Z,64.86
2023-04-27T08:58:10.996Z,64.51
2023-04-27T09:03:29.797Z,61.17
2023-04-27T09:08:45.686Z,58.76
2023-04-27T09:13:51.060Z,55.65
2023-04-27T09:18:55.755Z,54.82
2023-04-27T09:24:14.837Z,53.72
2023-04-27T09:29:18.132Z,55.53
2023-04-27T09:34:21.093Z,56.41
2023-04-27T09:39:23.954Z,56.31
2023-04-27T09:44:28.735Z,53.56
2023-04-27T09:49:34.598Z,50.66
2023-04-27T09:54:37.657Z,50.02
2023-04-27T09:59:46.317Z,50.64
2023-04-27T10:05:13.958Z,49.97
2023-04-27T10:10:18.695Z,49.09
2023-04-27T10:15:29.916Z,48.93
2023-04-27T10:20:37.540Z,49.19
2023-04-27T10:25:41.947Z,49.81
2023-04-27T10:30:48.517Z,50.74
2023-04-27T10:35:58.978Z,51.41
2023-04-27T10:41:05.260Z,52.08
2023-04-27T10:46:10.787Z,50.87
2023-04-27T10:51:18.032Z,50.92
2023-04-27T10:56:21.072Z,50.85
2023-04-27T11:01:27.070Z,49.40
2023-04-27T11:06:32.545Z,51.22
2023-04-27T11:11:35.403Z,52.41
2023-04-27T11:16:46.295Z,52.59
2023-04-27T11:21:49.353Z,53.49
2023-04-27T11:26:53.348Z,54.08
2023-04-27T11:31:56.300Z,53.96
2023-04-27T11:42:18.791Z,51.63
2023-04-27T11:47:22.962Z,50.45
2023-04-27T11:52:33.524Z,45.60
2023-04-27T11:57:36.798Z,46.24
2023-04-27T12:02:39.847Z,43.84
2023-04-27T12:07:43.547Z,41.84
2023-04-27T12:12:47.154Z,41.90
2023-04-27T12:17:50.994Z,42.69
2023-04-27T12:22:54.509Z,43.69
2023-04-27T12:27:57.829Z,44.53
2023-04-27T12:33:00.951Z,43.40
2023-04-27T12:38:03.775Z,42.54
2023-04-27T12:43:08.529Z,44.06
2023-04-27T12:48:11.914Z,44.69
2023-04-27T12:53:14.760Z,44.76
2023-04-27T12:58:17.579Z,44.56
2023-04-27T13:03:20.618Z,46.15
2023-04-27T13:08:23.699Z,49.85
2023-04-27T13:13:26.998Z,52.41
2023-04-27T13:18:32.865Z,55.69
2023-04-27T13:23:37.559Z,59.41
2023-04-27T13:28:41.128Z,62.94
2023-04-27T13:33:44.595Z,64.27
2023-04-27T13:38:48.262Z,65.48
2023-04-27T13:43:51.136Z,64.14
2023-04-27T13:48:53.972Z,62.55
2023-04-27T13:53:56.761Z,60.30
2023-04-27T13:59:01.347Z,60.31
2023-04-27T14:04:04.317Z,58.48
2023-04-27T14:09:07.298Z,56.40
2023-04-27T14:14:09.992Z,57.17
2023-04-27T14:19:16.013Z,58.41
2023-04-27T14:24:19.871Z,59.71
2023-04-27T14:29:23.705Z,61.35
2023-04-27T14:34:26.865Z,63.29
2023-04-27T14:39:29.536Z,65.41
2023-04-27T14:44:32.276Z,66.94
2023-04-27T14:49:35.008Z,68.61
2023-04-27T14:54:38.807Z,69.33
2023-04-27T14:59:41.594Z,70.15
2023-04-27T15:04:44.405Z,71.27
2023-04-27T15:09:47.309Z,71.11
2023-04-27T15:14:51.800Z,70.93
2023-04-27T15:19:54.692Z,67.93
2023-04-27T15:24:57.525Z,63.95
2023-04-27T15:30:00.467Z,61.48
2023-04-27T15:35:04.739Z,57.38
2023-04-27T15:40:08.805Z,53.50
2023-04-27T15:45:11.690Z,48.98
2023-04-27T15:50:14.501Z,48.11
2023-04-27T15:55:17.180Z,48.97
2023-04-27T16:00:22.340Z,50.60
2023-04-27T16:05:25.460Z,51.20
2023-04-27T16:10:28.399Z,53.81
2023-04-27T16:15:31.183Z,55.35
2023-04-27T16:20:36.419Z,55.83
2023-04-27T16:25:39.457Z,54.74
2023-04-27T16:30:42.195Z,55.53
2023-04-27T16:35:44.981Z,53.31
2023-04-27T16:40:47.836Z,49.15
2023-04-27T16:45:51.095Z,42.50
2023-04-27T16:50:55.216Z,37.74
2023-04-27T16:56:02.178Z,37.44
2023-04-27T17:01:05.095Z,34.89
2023-04-27T17:06:07.891Z,34.07
2023-04-27T17:11:11.793Z,34.73
2023-04-27T17:16:16.136Z,35.51
2023-04-27T17:21:19.548Z,36.67
2023-04-27T17:26:22.759Z,36.06
2023-04-27T17:31:28.508Z,38.71
2023-04-27T17:36:31.633Z,41.97
2023-04-27T17:41:36.769Z,44.73
2023-04-27T17:46:46.531Z,46.77
2023-04-27T17:51:49.413Z,48.83
2023-04-27T17:56:52.123Z,51.00
2023-04-27T18:01:54.968Z,52.61
2023-04-27T18:06:57.772Z,54.22
2023-04-27T18:12:00.776Z,55.86
2023-04-27T18:17:03.601Z,57.54
2023-04-27T18:22:06.333Z,58.74
2023-04-27T18:27:09.170Z,60.29
2023-04-27T18:32:12.219Z,61.81
2023-04-27T18:37:15.101Z,62.77
2023-04-27T18:42:20.806Z,63.48
2023-04-27T18:47:23.581Z,64.00
2023-04-27T18:52:26.560Z,64.90
2023-04-27T18:57:33.150Z,66.81
2023-04-27T19:02:35.974Z,68.92
2023-04-27T19:07:38.830Z,70.70
2023-04-27T19:12:41.685Z,72.00
2023-04-27T19:17:44.566Z,73.56
2023-04-27T19:22:47.851Z,75.38
2023-04-27T19:27:50.792Z,76.43
2023-04-27T19:32:53.547Z,78.06
2023-04-27T19:37:56.449Z,79.83
2023-04-27T19:42:59.329Z,81.39
2023-04-27T19:48:02.190Z,82.30
2023-04-27T19:53:04.995Z,82.85
2023-04-27T19:58:07.885Z,83.24
2023-04-27T20:03:12.701Z,84.06
2023-04-27T20:08:15.811Z,85.49
2023-04-27T20:13:18.570Z,86.60
2023-04-27T20:18:21.328Z,87.17
2023-04-27T20:23:24.181Z,87.53
2023-04-27T20:28:28.049Z,88.61
2023-04-27T20:33:32.823Z,90.07
2023-04-27T20:38:35.921Z,90.98
2023-04-27T20:43:40.302Z,91.42
2023-04-27T20:48:43.114Z,91.89
2023-04-27T20:53:45.931Z,93.05
2023-04-27T20:58:48.674Z,94.26
2023-04-27T21:03:52.416Z,94.72
2023-04-27T21:08:55.705Z,94.83
2023-04-27T21:13:58.536Z,95.57
2023-04-27T21:19:01.336Z,97.19
2023-04-27T21:24:08.199Z,97.98
2023-04-27T21:29:11.411Z,98.55
2023-04-27T21:34:14.436Z,99.04
2023-04-27T21:39:17.348Z,99.64
2023-04-27T21:44:20.101Z,99.65
2023-04-27T21:49:22.928Z,99.65
2023-04-27T21:54:25.803Z,99.98
2023-04-27T21:59:28.515Z,100.00
2023-04-27T22:04:31.374Z,100.00
2023-04-27T22:09:35.744Z,100.00
2023-04-27T22:14:38.551Z,100.00
2023-04-27T22:19:41.641Z,100.00
2023-04-27T22:24:44.447Z,100.00
2023-04-27T22:29:47.212Z,100.00
2023-04-27T22:34:50.449Z,100.00
2023-04-27T22:39:53.100Z,100.00
2023-04-27T22:44:55.829Z,100.00
2023-04-27T22:49:59.231Z,100.00
2023-04-27T22:55:02.360Z,100.00
2023-04-27T23:00:06.202Z,100.00
2023-04-27T23:05:11.043Z,100.00
2023-04-27T23:10:15.258Z,100.00
2023-04-27T23:15:18.671Z,100.00
2023-04-27T23:20:28.018Z,100.00
2023-04-27T23:25:33.235Z,100.00
2023-04-27T23:30:36.594Z,100.00
2023-04-27T23:35:39.790Z,100.00
2023-04-27T23:40:42.616Z,100.00
2023-04-27T23:45:52.770Z,100.00
2023-04-27T23:51:01.012Z,100.00
2023-04-27T23:56:03.956Z,100.00
